Terminal Aerodrome Forecast
Issued by NWS Twin Cities, MN

Home | Current Version | Previous Version | Text Only | Print | Product List | Glossary On
Versions: 1 2 3 4 5 6 7 8 9 10 11 12 13 14 15 16
000
FTUS43 KMPX 191508 AAC
TAFEAU
TAF AMD
KEAU 191508Z 1915/2012 27007KT P6SM SCT040
     FM200000 18003KT P6SM SKC
     FM201000 17003KT P6SM BKN250=

USA.gov is the U.S. government's official web portal to all federal, state and local government web resources and services.